Terminal Aerodrome Forecast
Issued by NWS Paducah, KY

Home | Current Version | Previous Version | Text Only | Print | Product List | Glossary On
Versions: 1 2 3 4 5 6 7 8 9 10 11 12 13 14 15 16 17 18 19 20
772
FTUS43 KPAH 241410 AAA
TAFEVV
TAF AMD
KEVV 241410Z 2414/2512 36005KT 3SM -RADZ BR BKN007
      TEMPO 2414/2416 6SM BR SCT007 BKN012
     FM241600 34009KT P6SM VCSH OVC020
     FM250000 35008KT P6SM OVC035
     FM251000 35007KT P6SM BKN025=

USA.gov is the U.S. government's official web portal to all federal, state and local government web resources and services.